AUA729 LOWW-LQSA
Flight info
| Callsign | AUA729 |
|---|---|
| Flight time | 0h 48m |
| Altitude | 31000 |
| Route | STEIN DCT NOHAT DCT KOPRY DCT LURID DCT BOSNA |
| Aircraft | A20N/M-SDE2E3FGHIJ1RWXY/LB1 |
Departure
| Time | 2026-05-05 11:21 |
|---|---|
| Airport | Vienna International Airport (LOWW) |
Arrival
| Time | 2026-05-05 12:10 |
|---|---|
| Airport | Sarajevo International Airport (LQSA) |
| Time | Latitude | Longitude | Altitude | Speed | Heading |
|---|---|---|---|---|---|
| 2026-05-05 10:51 | 48.11826 | 16.56985 | 615 ft | 0 kts | 206° |
| 2026-05-05 11:09 | 48.11841 | 16.56996 | 622 ft | 4 kts | 204° |
| 2026-05-05 11:09 | 48.11866 | 16.57010 | 625 ft | 4 kts | 193° |
| 2026-05-05 11:09 | 48.11891 | 16.57013 | 625 ft | 4 kts | 152° |
| 2026-05-05 11:10 | 48.11900 | 16.57003 | 625 ft | 0 kts | 116° |
| 2026-05-05 11:15 | 48.11897 | 16.57013 | 625 ft | 4 kts | 116° |
| 2026-05-05 11:15 | 48.11869 | 16.57093 | 620 ft | 11 kts | 116° |
| 2026-05-05 11:16 | 48.11855 | 16.57212 | 609 ft | 13 kts | 92° |
| 2026-05-05 11:16 | 48.11821 | 16.57330 | 611 ft | 13 kts | 116° |
| 2026-05-05 11:16 | 48.11820 | 16.57462 | 613 ft | 14 kts | 77° |
| 2026-05-05 11:16 | 48.11847 | 16.57609 | 618 ft | 11 kts | 74° |
| 2026-05-05 11:17 | 48.11850 | 16.57624 | 613 ft | 0 kts | 73° |
| 2026-05-05 11:19 | 48.11851 | 16.57627 | 620 ft | 2 kts | 73° |
| 2026-05-05 11:19 | 48.11862 | 16.57696 | 620 ft | 10 kts | 83° |
| 2026-05-05 11:19 | 48.11843 | 16.57815 | 620 ft | 13 kts | 119° |
| 2026-05-05 11:20 | 48.11774 | 16.57904 | 609 ft | 13 kts | 158° |
| 2026-05-05 11:20 | 48.11717 | 16.57932 | 621 ft | 5 kts | 163° |
| 2026-05-05 11:20 | 48.11674 | 16.57951 | 613 ft | 11 kts | 163° |
| 2026-05-05 11:20 | 48.11312 | 16.58113 | 616 ft | 95 kts | 165° |
| 2026-05-05 11:21 | 48.10447 | 16.58472 | 629 ft | 160 kts | 161° |
| 2026-05-05 11:21 | 48.09277 | 16.58981 | 1051 ft | 187 kts | 163° |
| 2026-05-05 11:21 | 48.07944 | 16.59539 | 1593 ft | 218 kts | 165° |
| 2026-05-05 11:21 | 48.06540 | 16.60138 | 2768 ft | 202 kts | 166° |
| 2026-05-05 11:22 | 48.05137 | 16.60744 | 3694 ft | 219 kts | 167° |
| 2026-05-05 11:22 | 48.03587 | 16.61396 | 4462 ft | 244 kts | 167° |
| 2026-05-05 11:22 | 48.01845 | 16.62118 | 5013 ft | 276 kts | 167° |
| 2026-05-05 11:22 | 47.99883 | 16.62924 | 5484 ft | 307 kts | 169° |
| 2026-05-05 11:23 | 47.97700 | 16.63381 | 5938 ft | 318 kts | 180° |
| 2026-05-05 11:23 | 47.95617 | 16.63291 | 6354 ft | 286 kts | 185° |
| 2026-05-05 11:23 | 47.93747 | 16.63171 | 6773 ft | 253 kts | 184° |
| 2026-05-05 11:23 | 47.91994 | 16.63056 | 7211 ft | 257 kts | 185° |
| 2026-05-05 11:24 | 47.90193 | 16.62935 | 7653 ft | 257 kts | 185° |
| 2026-05-05 11:24 | 47.88402 | 16.62819 | 8095 ft | 260 kts | 185° |
| 2026-05-05 11:24 | 47.86591 | 16.62700 | 8558 ft | 261 kts | 185° |
| 2026-05-05 11:24 | 47.84757 | 16.62584 | 9039 ft | 265 kts | 185° |
| 2026-05-05 11:25 | 47.82922 | 16.62467 | 9508 ft | 265 kts | 185° |
| 2026-05-05 11:25 | 47.81089 | 16.62353 | 9948 ft | 267 kts | 185° |
| 2026-05-05 11:25 | 47.79199 | 16.62233 | 10385 ft | 281 kts | 185° |
| 2026-05-05 11:25 | 47.77159 | 16.62099 | 10838 ft | 302 kts | 184° |
| 2026-05-05 11:26 | 47.74990 | 16.61962 | 11297 ft | 318 kts | 184° |
| 2026-05-05 11:26 | 47.72777 | 16.61825 | 11739 ft | 324 kts | 184° |
| 2026-05-05 11:26 | 47.70528 | 16.61689 | 12196 ft | 323 kts | 184° |
| 2026-05-05 11:26 | 47.68271 | 16.61549 | 12658 ft | 327 kts | 184° |
| 2026-05-05 11:27 | 47.65974 | 16.61407 | 13143 ft | 331 kts | 184° |
| 2026-05-05 11:27 | 47.63656 | 16.61265 | 13608 ft | 333 kts | 184° |
| 2026-05-05 11:27 | 47.61316 | 16.61121 | 14041 ft | 338 kts | 184° |
| 2026-05-05 11:27 | 47.58959 | 16.60977 | 14471 ft | 337 kts | 184° |
| 2026-05-05 11:28 | 47.56627 | 16.60832 | 14905 ft | 341 kts | 184° |
| 2026-05-05 11:28 | 47.54245 | 16.60684 | 15345 ft | 345 kts | 185° |
| 2026-05-05 11:28 | 47.51819 | 16.60533 | 15789 ft | 350 kts | 185° |
| 2026-05-05 11:28 | 47.49381 | 16.60385 | 16263 ft | 352 kts | 185° |
| 2026-05-05 11:29 | 47.46922 | 16.60236 | 16710 ft | 354 kts | 185° |
| 2026-05-05 11:29 | 47.44445 | 16.60082 | 17185 ft | 359 kts | 185° |
| 2026-05-05 11:29 | 47.41952 | 16.59996 | 17652 ft | 364 kts | 181° |
| 2026-05-05 11:29 | 47.39374 | 16.60115 | 18139 ft | 369 kts | 181° |
| 2026-05-05 11:30 | 47.36819 | 16.60227 | 18564 ft | 373 kts | 181° |
| 2026-05-05 11:30 | 47.34220 | 16.60342 | 18983 ft | 374 kts | 181° |
| 2026-05-05 11:30 | 47.31605 | 16.60459 | 19429 ft | 376 kts | 181° |
| 2026-05-05 11:30 | 47.28980 | 16.60577 | 19862 ft | 379 kts | 181° |
| 2026-05-05 11:31 | 47.26343 | 16.60692 | 20303 ft | 380 kts | 181° |
| 2026-05-05 11:31 | 47.23674 | 16.60809 | 20759 ft | 385 kts | 181° |
| 2026-05-05 11:31 | 47.20986 | 16.60924 | 21214 ft | 387 kts | 181° |
| 2026-05-05 11:31 | 47.18273 | 16.61041 | 21685 ft | 390 kts | 181° |
| 2026-05-05 11:32 | 47.15581 | 16.61155 | 22147 ft | 393 kts | 181° |
| 2026-05-05 11:32 | 47.12831 | 16.61274 | 22638 ft | 396 kts | 181° |
| 2026-05-05 11:32 | 47.10062 | 16.61391 | 23123 ft | 399 kts | 180° |
| 2026-05-05 11:32 | 47.07271 | 16.61510 | 23593 ft | 403 kts | 181° |
| 2026-05-05 11:33 | 47.04447 | 16.61632 | 24011 ft | 406 kts | 181° |
| 2026-05-05 11:33 | 47.01612 | 16.61756 | 24349 ft | 409 kts | 181° |
| 2026-05-05 11:33 | 46.98767 | 16.61881 | 24633 ft | 410 kts | 181° |
| 2026-05-05 11:33 | 46.95902 | 16.62005 | 24920 ft | 412 kts | 181° |
| 2026-05-05 11:34 | 46.93020 | 16.62127 | 25213 ft | 415 kts | 181° |
| 2026-05-05 11:34 | 46.90160 | 16.62251 | 25499 ft | 416 kts | 181° |
| 2026-05-05 11:34 | 46.87254 | 16.62375 | 25802 ft | 419 kts | 181° |
| 2026-05-05 11:34 | 46.84315 | 16.62535 | 26101 ft | 422 kts | 178° |
| 2026-05-05 11:35 | 46.81384 | 16.63113 | 26401 ft | 427 kts | 171° |
| 2026-05-05 11:35 | 46.78487 | 16.64229 | 26706 ft | 433 kts | 164° |
| 2026-05-05 11:35 | 46.75675 | 16.65827 | 27011 ft | 437 kts | 160° |
| 2026-05-05 11:35 | 46.72894 | 16.67507 | 27328 ft | 439 kts | 160° |
| 2026-05-05 11:36 | 46.70056 | 16.69209 | 27647 ft | 442 kts | 160° |
| 2026-05-05 11:36 | 46.67203 | 16.70907 | 27972 ft | 444 kts | 161° |
| 2026-05-05 11:36 | 46.64330 | 16.72611 | 28294 ft | 446 kts | 161° |
| 2026-05-05 11:36 | 46.61443 | 16.74319 | 28622 ft | 449 kts | 161° |
| 2026-05-05 11:37 | 46.58539 | 16.76033 | 28949 ft | 452 kts | 161° |
| 2026-05-05 11:37 | 46.55622 | 16.77755 | 29280 ft | 454 kts | 161° |
| 2026-05-05 11:37 | 46.52691 | 16.79483 | 29623 ft | 456 kts | 161° |
| 2026-05-05 11:37 | 46.49746 | 16.81217 | 29965 ft | 458 kts | 161° |
| 2026-05-05 11:38 | 46.46783 | 16.82961 | 30274 ft | 460 kts | 161° |
| 2026-05-05 11:38 | 46.43809 | 16.84709 | 30562 ft | 462 kts | 161° |
| 2026-05-05 11:38 | 46.40824 | 16.86461 | 30860 ft | 463 kts | 161° |
| 2026-05-05 11:38 | 46.37827 | 16.88217 | 30973 ft | 464 kts | 161° |
| 2026-05-05 11:39 | 46.34838 | 16.89968 | 30973 ft | 463 kts | 161° |
| 2026-05-05 11:39 | 46.28901 | 16.93438 | 30975 ft | 463 kts | 161° |
| 2026-05-05 11:40 | 46.22895 | 16.96757 | 30977 ft | 460 kts | 166° |
| 2026-05-05 11:40 | 46.16718 | 16.99231 | 30980 ft | 460 kts | 167° |
| 2026-05-05 11:41 | 46.10536 | 17.01707 | 30983 ft | 460 kts | 167° |
| 2026-05-05 11:41 | 46.04392 | 17.04168 | 30985 ft | 461 kts | 167° |
| 2026-05-05 11:42 | 45.98206 | 17.06642 | 30982 ft | 461 kts | 167° |
| 2026-05-05 11:42 | 45.92018 | 17.09110 | 30990 ft | 461 kts | 167° |
| 2026-05-05 11:43 | 45.85819 | 17.11576 | 30987 ft | 461 kts | 167° |
| 2026-05-05 11:43 | 45.79660 | 17.14021 | 30986 ft | 461 kts | 167° |
| 2026-05-05 11:44 | 45.73472 | 17.16472 | 30987 ft | 461 kts | 167° |
| 2026-05-05 11:44 | 45.67264 | 17.18925 | 30892 ft | 461 kts | 167° |
| 2026-05-05 11:44 | 45.64166 | 17.20147 | 30536 ft | 461 kts | 167° |
| 2026-05-05 11:45 | 45.61087 | 17.21361 | 30093 ft | 458 kts | 167° |
| 2026-05-05 11:45 | 45.58057 | 17.22555 | 29599 ft | 454 kts | 167° |
| 2026-05-05 11:45 | 45.55023 | 17.23749 | 29093 ft | 449 kts | 167° |
| 2026-05-05 11:45 | 45.52015 | 17.24931 | 28598 ft | 445 kts | 167° |
| 2026-05-05 11:46 | 45.49037 | 17.26098 | 28109 ft | 442 kts | 167° |
| 2026-05-05 11:46 | 45.46080 | 17.27255 | 27631 ft | 439 kts | 167° |
| 2026-05-05 11:46 | 45.43143 | 17.28404 | 27164 ft | 436 kts | 167° |
| 2026-05-05 11:46 | 45.40230 | 17.29542 | 26704 ft | 433 kts | 167° |
| 2026-05-05 11:47 | 45.37337 | 17.30672 | 26251 ft | 430 kts | 167° |
| 2026-05-05 11:47 | 45.34493 | 17.31782 | 25806 ft | 428 kts | 167° |
| 2026-05-05 11:47 | 45.31637 | 17.32895 | 25368 ft | 425 kts | 167° |
| 2026-05-05 11:47 | 45.28790 | 17.34003 | 24932 ft | 422 kts | 167° |
| 2026-05-05 11:48 | 45.23165 | 17.36189 | 24090 ft | 417 kts | 166° |
| 2026-05-05 11:48 | 45.20364 | 17.37275 | 23676 ft | 414 kts | 166° |
| 2026-05-05 11:48 | 45.17596 | 17.38349 | 23206 ft | 411 kts | 166° |
| 2026-05-05 11:49 | 45.14843 | 17.39416 | 22711 ft | 407 kts | 166° |
| 2026-05-05 11:49 | 45.12130 | 17.40571 | 22242 ft | 404 kts | 163° |
| 2026-05-05 11:49 | 45.09476 | 17.41842 | 21764 ft | 401 kts | 163° |
| 2026-05-05 11:49 | 45.06841 | 17.43107 | 21307 ft | 398 kts | 163° |
| 2026-05-05 11:50 | 45.04255 | 17.44344 | 20858 ft | 395 kts | 163° |
| 2026-05-05 11:50 | 45.01666 | 17.45579 | 20412 ft | 391 kts | 163° |
| 2026-05-05 11:50 | 44.99096 | 17.46802 | 19969 ft | 389 kts | 163° |
| 2026-05-05 11:50 | 44.96545 | 17.48014 | 19530 ft | 385 kts | 163° |
| 2026-05-05 11:51 | 44.94009 | 17.49218 | 19104 ft | 383 kts | 163° |
| 2026-05-05 11:51 | 44.91485 | 17.50416 | 18672 ft | 380 kts | 163° |
| 2026-05-05 11:51 | 44.88987 | 17.51598 | 18257 ft | 377 kts | 163° |
| 2026-05-05 11:51 | 44.86507 | 17.52771 | 17771 ft | 374 kts | 163° |
| 2026-05-05 11:52 | 44.84055 | 17.53930 | 17305 ft | 370 kts | 163° |
| 2026-05-05 11:52 | 44.81623 | 17.55081 | 16830 ft | 365 kts | 163° |
| 2026-05-05 11:52 | 44.79230 | 17.56213 | 16360 ft | 361 kts | 163° |
| 2026-05-05 11:52 | 44.76855 | 17.57335 | 15918 ft | 359 kts | 163° |
| 2026-05-05 11:53 | 44.74494 | 17.58449 | 15455 ft | 354 kts | 163° |
| 2026-05-05 11:53 | 44.72168 | 17.59546 | 15103 ft | 350 kts | 163° |
| 2026-05-05 11:53 | 44.69893 | 17.60617 | 15004 ft | 349 kts | 163° |
| 2026-05-05 11:53 | 44.67582 | 17.61704 | 14993 ft | 352 kts | 163° |
| 2026-05-05 11:54 | 44.65254 | 17.62794 | 14997 ft | 351 kts | 163° |
| 2026-05-05 11:54 | 44.62931 | 17.63884 | 14996 ft | 351 kts | 163° |
| 2026-05-05 11:54 | 44.60607 | 17.64975 | 14993 ft | 350 kts | 163° |
| 2026-05-05 11:54 | 44.58372 | 17.66025 | 14996 ft | 335 kts | 163° |
| 2026-05-05 11:55 | 44.56215 | 17.67038 | 14998 ft | 317 kts | 164° |
| 2026-05-05 11:55 | 44.54160 | 17.68005 | 15002 ft | 309 kts | 164° |
| 2026-05-05 11:55 | 44.52101 | 17.68966 | 14989 ft | 315 kts | 164° |
| 2026-05-05 11:55 | 44.50005 | 17.69942 | 14693 ft | 316 kts | 164° |
| 2026-05-05 11:56 | 44.47921 | 17.70912 | 14260 ft | 314 kts | 164° |
| 2026-05-05 11:56 | 44.45869 | 17.71867 | 13845 ft | 313 kts | 164° |
| 2026-05-05 11:56 | 44.43809 | 17.72824 | 13376 ft | 311 kts | 163° |
| 2026-05-05 11:56 | 44.41758 | 17.73781 | 12913 ft | 309 kts | 163° |
| 2026-05-05 11:57 | 44.39722 | 17.74729 | 12426 ft | 306 kts | 164° |
| 2026-05-05 11:57 | 44.37712 | 17.75671 | 11983 ft | 304 kts | 162° |
| 2026-05-05 11:57 | 44.35764 | 17.76876 | 11539 ft | 306 kts | 155° |
| 2026-05-05 11:57 | 44.33899 | 17.78235 | 11097 ft | 306 kts | 155° |
| 2026-05-05 11:58 | 44.32003 | 17.79609 | 10663 ft | 306 kts | 155° |
| 2026-05-05 11:58 | 44.30112 | 17.80975 | 10234 ft | 306 kts | 155° |
| 2026-05-05 11:58 | 44.28236 | 17.82325 | 10042 ft | 300 kts | 155° |
| 2026-05-05 11:58 | 44.26419 | 17.83637 | 10006 ft | 287 kts | 155° |
| 2026-05-05 11:59 | 44.25265 | 17.84471 | 9993 ft | 276 kts | 155° |
| 2026-05-05 11:59 | 44.23073 | 17.86055 | 9853 ft | 262 kts | 155° |
| 2026-05-05 11:59 | 44.21977 | 17.86843 | 9600 ft | 262 kts | 156° |
| 2026-05-05 11:59 | 44.20346 | 17.88011 | 9209 ft | 264 kts | 156° |
| 2026-05-05 12:00 | 44.18728 | 17.89167 | 8824 ft | 264 kts | 155° |
| 2026-05-05 12:00 | 44.17093 | 17.90335 | 8443 ft | 264 kts | 156° |
| 2026-05-05 12:00 | 44.15446 | 17.91507 | 8070 ft | 264 kts | 155° |
| 2026-05-05 12:00 | 44.13816 | 17.92682 | 7695 ft | 263 kts | 155° |
| 2026-05-05 12:01 | 44.12192 | 17.93850 | 7345 ft | 261 kts | 155° |
| 2026-05-05 12:01 | 44.10598 | 17.94993 | 7222 ft | 253 kts | 155° |
| 2026-05-05 12:01 | 44.09095 | 17.96071 | 7199 ft | 240 kts | 155° |
| 2026-05-05 12:01 | 44.07648 | 17.97109 | 7203 ft | 227 kts | 156° |
| 2026-05-05 12:02 | 44.06296 | 17.98068 | 7209 ft | 209 kts | 156° |
| 2026-05-05 12:02 | 44.05039 | 17.98965 | 7179 ft | 201 kts | 157° |
| 2026-05-05 12:02 | 44.03787 | 17.99853 | 6931 ft | 204 kts | 156° |
| 2026-05-05 12:02 | 44.02507 | 18.00775 | 6633 ft | 208 kts | 156° |
| 2026-05-05 12:03 | 44.01209 | 18.01536 | 6390 ft | 197 kts | 165° |
| 2026-05-05 12:03 | 43.99917 | 18.02127 | 6080 ft | 194 kts | 166° |
| 2026-05-05 12:03 | 43.98640 | 18.02711 | 5731 ft | 191 kts | 165° |
| 2026-05-05 12:03 | 43.97402 | 18.03293 | 5432 ft | 189 kts | 165° |
| 2026-05-05 12:04 | 43.96157 | 18.03880 | 5127 ft | 188 kts | 165° |
| 2026-05-05 12:04 | 43.94942 | 18.04460 | 5003 ft | 179 kts | 165° |
| 2026-05-05 12:04 | 43.93815 | 18.04992 | 5021 ft | 162 kts | 165° |
| 2026-05-05 12:04 | 43.92838 | 18.05678 | 5021 ft | 162 kts | 142° |
| 2026-05-05 12:05 | 43.92178 | 18.06968 | 5017 ft | 169 kts | 123° |
| 2026-05-05 12:05 | 43.91680 | 18.08427 | 5005 ft | 164 kts | 121° |
| 2026-05-05 12:05 | 43.91157 | 18.09844 | 5021 ft | 166 kts | 123° |
| 2026-05-05 12:05 | 43.90623 | 18.11277 | 5034 ft | 168 kts | 124° |
| 2026-05-05 12:06 | 43.90084 | 18.12722 | 4878 ft | 169 kts | 122° |
| 2026-05-05 12:06 | 43.89534 | 18.14205 | 4599 ft | 172 kts | 123° |
| 2026-05-05 12:06 | 43.88987 | 18.15659 | 4385 ft | 173 kts | 123° |
| 2026-05-05 12:06 | 43.88442 | 18.17125 | 4118 ft | 169 kts | 122° |
| 2026-05-05 12:07 | 43.87919 | 18.18540 | 3870 ft | 164 kts | 123° |
| 2026-05-05 12:07 | 43.87404 | 18.19914 | 3677 ft | 158 kts | 121° |
| 2026-05-05 12:07 | 43.86905 | 18.21246 | 3461 ft | 155 kts | 121° |
| 2026-05-05 12:07 | 43.86402 | 18.22596 | 3216 ft | 159 kts | 117° |
| 2026-05-05 12:08 | 43.85902 | 18.23938 | 2988 ft | 154 kts | 118° |
| 2026-05-05 12:08 | 43.85424 | 18.25214 | 2788 ft | 150 kts | 118° |
| 2026-05-05 12:08 | 43.84935 | 18.26525 | 2571 ft | 154 kts | 120° |
| 2026-05-05 12:08 | 43.84455 | 18.27814 | 2364 ft | 146 kts | 120° |
| 2026-05-05 12:09 | 43.84002 | 18.29023 | 2160 ft | 136 kts | 121° |
| 2026-05-05 12:09 | 43.83569 | 18.30178 | 1984 ft | 138 kts | 122° |
| 2026-05-05 12:09 | 43.83111 | 18.31398 | 1770 ft | 145 kts | 120° |
| 2026-05-05 12:09 | 43.82677 | 18.32571 | 1675 ft | 124 kts | 122° |
| 2026-05-05 12:10 | 43.82401 | 18.33281 | 1685 ft | 45 kts | 116° |
| 2026-05-05 12:10 | 43.82302 | 18.33536 | 1687 ft | 19 kts | 111° |
| 2026-05-05 12:10 | 43.82286 | 18.33608 | 1689 ft | 6 kts | 104° |
| 2026-05-05 12:10 | 43.82291 | 18.33659 | 1691 ft | 5 kts | 56° |
| 2026-05-05 12:11 | 43.82323 | 18.33674 | 1691 ft | 6 kts | 2° |
| 2026-05-05 12:11 | 43.82337 | 18.33671 | 1691 ft | 0 kts | 352° |
| 2026-05-05 12:13 | 43.82339 | 18.33671 | 1691 ft | 2 kts | 352° |
| 2026-05-05 12:13 | 43.82372 | 18.33661 | 1692 ft | 8 kts | 343° |
| 2026-05-05 12:13 | 43.82441 | 18.33627 | 1688 ft | 13 kts | 337° |
| 2026-05-05 12:13 | 43.82495 | 18.33528 | 1684 ft | 7 kts | 296° |
| 2026-05-05 12:14 | 43.82559 | 18.33504 | 1681 ft | 13 kts | 21° |
| 2026-05-05 12:14 | 43.82576 | 18.33518 | 1685 ft | 1 kts | 21° |
| 2026-05-05 12:14 | 43.82579 | 18.33520 | 1684 ft | 0 kts | 22° |
| 2026-05-05 12:14 | 43.82581 | 18.33521 | 1684 ft | 0 kts | 22° |